KRKW/RKW METAR and TAF weather

Enter ICAO airport designator
Station Type Date Time Source
KRKW METAR 2020/01/23 21:15 UTC NOAA

KRKW 232115Z AUTO 13004KT 10SM FEW043 FEW050 SCT060 05/M01 A3007 RMK A01


Station Type Date Time Source
KRKW Decoded METAR 2020/01/23 21:15 UTC NOAA

Station name not available
Jan 23, 2020 - 04:15 PM EST / 2020.01.23 2115 UTC
Wind: from the SE (130 degrees) at 5 MPH (4 KT):0
Visibility: 10 mile(s):0
Sky conditions: partly cloudy
Temperature: 41 F (5 C)
Dew Point: 30 F (-1 C)
Relative Humidity: 65%
Pressure (altimeter): 30.07 in. Hg (1018 hPa)
ob: KRKW 232115Z AUTO 13004KT 10SM FEW043 FEW050 SCT060 05/M01 A3007 RMK A01
cycle: 21

Station Type Date Time Source
KRKW TAF 2009/08/31 19:50 UTC NOAA

METAR KRKW 311950Z AUTO VRB05KT 10SM CLR 25/13 A3010
RMK AO1 T02500133 $

Example: see airport list